Time;durP1;ratioP1;P1;durP2;ratioP2;P2;SDS_P1;SDS_P2;PMS_P1;PMS_P2;Temp;Humidity;BMP_temperature;BMP_pressure;BME280_temperature;BME280_humidity;BME280_pressure;Samples;Min_cycle;Max_cycle;Signal;HPM_P1;HPM_P2
2022/08/13 00:01:59;;;;;;;;;;;21.60;45.40;;;;;;482035;247;2059;-52
2022/08/13 00:04:00;;;;;;;;;;;21.60;45.30;;;;;;482042;247;1632;-51
2022/08/13 00:06:02;;;;;;;;;;;21.60;45.40;;;;;;482246;247;2199;-52
2022/08/13 00:08:04;;;;;;;;;;;21.60;45.40;;;;;;482380;247;1246;-51
2022/08/13 00:10:04;;;;;;;;;;;21.60;45.40;;;;;;481890;247;1880;-51
2022/08/13 00:14:24;;;;;;;;;;;21.60;45.50;;;;;;482339;247;1279;-51
2022/08/13 00:16:26;;;;;;;;;;;21.60;45.50;;;;;;482053;247;2149;-51
2022/08/13 00:18:28;;;;;;;;;;;21.60;45.50;;;;;;482146;247;1295;-50
2022/08/13 00:20:28;;;;;;;;;;;21.60;45.50;;;;;;482061;247;2322;-52
2022/08/13 00:22:30;;;;;;;;;;;21.60;45.50;;;;;;482022;247;1240;-51
2022/08/13 00:24:31;;;;;;;;;;;21.60;45.50;;;;;;482082;247;1238;-52
2022/08/13 00:26:33;;;;;;;;;;;21.60;45.50;;;;;;482208;246;1276;-51
2022/08/13 00:28:35;;;;;;;;;;;21.60;45.50;;;;;;482130;247;1473;-51
2022/08/13 00:30:35;;;;;;;;;;;21.60;45.50;;;;;;482092;247;2522;-51
2022/08/13 00:32:37;;;;;;;;;;;21.60;45.50;;;;;;481953;247;1233;-51
2022/08/13 00:34:38;;;;;;;;;;;21.60;45.50;;;;;;482128;247;2010;-51
2022/08/13 00:36:39;;;;;;;;;;;21.60;45.50;;;;;;482557;247;2150;-52
2022/08/13 00:38:45;;;;;;;;;;;21.60;45.60;;;;;;482114;247;1237;-51
2022/08/13 00:40:42;;;;;;;;;;;21.60;45.60;;;;;;482154;247;2153;-51
2022/08/13 00:42:43;;;;;;;;;;;21.60;45.60;;;;;;482082;247;1239;-51
2022/08/13 00:44:45;;;;;;;;;;;21.60;45.60;;;;;;482229;247;1174;-52
2022/08/13 00:46:46;;;;;;;;;;;21.60;45.50;;;;;;482054;247;1581;-51
2022/08/13 00:48:48;;;;;;;;;;;21.60;45.60;;;;;;482362;247;1263;-51
2022/08/13 00:50:50;;;;;;;;;;;21.60;45.60;;;;;;482055;247;2481;-52
2022/08/13 00:52:51;;;;;;;;;;;21.60;45.60;;;;;;482413;247;1752;-52
2022/08/13 00:54:52;;;;;;;;;;;21.60;45.60;;;;;;482212;247;1210;-51
2022/08/13 00:56:57;;;;;;;;;;;21.60;45.60;;;;;;482092;247;2165;-51
2022/08/13 00:58:56;;;;;;;;;;;21.60;45.60;;;;;;482229;247;1922;-51
2022/08/13 01:00:57;;;;;;;;;;;21.60;45.60;;;;;;481719;247;1389;-51
2022/08/13 01:02:58;;;;;;;;;;;21.60;45.70;;;;;;482226;247;1408;-51
2022/08/13 01:04:59;;;;;;;;;;;21.60;45.60;;;;;;482113;247;1183;-52
2022/08/13 01:07:02;;;;;;;;;;;21.60;45.70;;;;;;482110;247;1695;-52
2022/08/13 01:09:02;;;;;;;;;;;21.60;45.70;;;;;;482100;247;1881;-51
2022/08/13 01:11:03;;;;;;;;;;;21.60;45.70;;;;;;482152;247;1178;-51
2022/08/13 01:13:05;;;;;;;;;;;21.60;45.70;;;;;;482224;247;1178;-51
2022/08/13 01:15:06;;;;;;;;;;;21.60;45.70;;;;;;482311;247;1210;-51
2022/08/13 01:17:07;;;;;;;;;;;21.60;45.70;;;;;;482114;247;2153;-51
2022/08/13 01:19:09;;;;;;;;;;;21.60;45.70;;;;;;482052;247;1268;-51
2022/08/13 01:21:10;;;;;;;;;;;21.60;45.70;;;;;;482484;247;1241;-51
2022/08/13 01:23:13;;;;;;;;;;;21.60;45.70;;;;;;482159;247;1181;-51
2022/08/13 01:25:13;;;;;;;;;;;21.60;45.80;;;;;;482179;247;2180;-51
2022/08/13 01:27:21;;;;;;;;;;;21.60;45.80;;;;;;482552;247;1267;-51
2022/08/13 01:29:16;;;;;;;;;;;21.60;45.70;;;;;;476880;247;2278;-52
2022/08/13 01:31:18;;;;;;;;;;;21.60;45.70;;;;;;482275;247;1195;-51
2022/08/13 01:33:19;;;;;;;;;;;21.60;45.80;;;;;;482120;247;1340;-51
2022/08/13 01:35:20;;;;;;;;;;;21.60;45.80;;;;;;482474;246;1218;-51
2022/08/13 01:37:21;;;;;;;;;;;21.60;45.80;;;;;;482107;247;2209;-51
2022/08/13 01:39:23;;;;;;;;;;;21.60;45.80;;;;;;481811;247;1160;-51
2022/08/13 01:41:24;;;;;;;;;;;21.60;45.80;;;;;;482142;247;1356;-51
2022/08/13 01:43:28;;;;;;;;;;;21.60;45.80;;;;;;482122;247;1237;-52
2022/08/13 01:45:27;;;;;;;;;;;21.60;45.80;;;;;;482152;247;1576;-51
2022/08/13 01:52:07;;;;;;;;;;;21.60;45.80;;;;;;482333;247;1208;-51
2022/08/13 01:54:10;;;;;;;;;;;21.60;45.80;;;;;;482156;246;1215;-51
2022/08/13 01:56:10;;;;;;;;;;;21.60;45.80;;;;;;482039;247;2356;-52
2022/08/13 01:58:11;;;;;;;;;;;21.60;45.80;;;;;;482108;247;1948;-52
2022/08/13 02:00:13;;;;;;;;;;;21.60;45.90;;;;;;471600;247;1200;-52
2022/08/13 02:02:14;;;;;;;;;;;21.60;45.90;;;;;;476081;247;1214;-51
2022/08/13 02:04:16;;;;;;;;;;;21.60;45.90;;;;;;482186;247;1674;-51
2022/08/13 02:06:17;;;;;;;;;;;21.60;46.00;;;;;;482161;247;1286;-52
2022/08/13 02:08:18;;;;;;;;;;;21.50;45.90;;;;;;481711;247;1178;-51
2022/08/13 02:10:20;;;;;;;;;;;21.60;46.00;;;;;;481950;247;1196;-51
2022/08/13 02:12:21;;;;;;;;;;;21.60;45.90;;;;;;481662;247;1212;-51
2022/08/13 02:14:23;;;;;;;;;;;21.60;46.00;;;;;;482377;247;1586;-51
2022/08/13 02:16:24;;;;;;;;;;;21.60;46.00;;;;;;482519;247;2196;-51
2022/08/13 02:18:26;;;;;;;;;;;21.60;46.00;;;;;;482102;247;1485;-51
2022/08/13 02:20:26;;;;;;;;;;;21.60;45.90;;;;;;482078;247;2561;-51
2022/08/13 02:22:28;;;;;;;;;;;21.60;46.00;;;;;;482531;247;1336;-52
2022/08/13 02:24:29;;;;;;;;;;;21.60;46.00;;;;;;482116;247;1151;-52
2022/08/13 02:26:32;;;;;;;;;;;21.60;46.00;;;;;;482297;247;1415;-52
2022/08/13 02:28:39;;;;;;;;;;;21.60;46.00;;;;;;482142;247;2448;-51
2022/08/13 02:30:35;;;;;;;;;;;21.60;46.00;;;;;;482173;247;1505;-51
2022/08/13 02:32:35;;;;;;;;;;;21.60;46.00;;;;;;482202;247;2245;-52
2022/08/13 02:34:36;;;;;;;;;;;21.60;46.00;;;;;;482100;247;1186;-51
2022/08/13 02:36:40;;;;;;;;;;;21.60;46.00;;;;;;482429;247;2220;-52
2022/08/13 02:38:39;;;;;;;;;;;21.60;46.00;;;;;;476407;247;1753;-51
2022/08/13 02:42:59;;;;;;;;;;;21.60;46.00;;;;;;474871;247;1349;-52
2022/08/13 02:45:01;;;;;;;;;;;21.60;46.00;;;;;;481792;247;1263;-52
2022/08/13 02:47:03;;;;;;;;;;;21.60;46.00;;;;;;481976;247;1248;-51
2022/08/13 02:49:03;;;;;;;;;;;21.60;46.00;;;;;;482057;246;2332;-51
2022/08/13 02:51:05;;;;;;;;;;;21.60;46.00;;;;;;482039;246;1241;-52
2022/08/13 02:53:06;;;;;;;;;;;21.60;46.00;;;;;;482034;246;1593;-52
2022/08/13 02:55:08;;;;;;;;;;;21.60;46.10;;;;;;482052;247;1415;-52
2022/08/13 02:57:09;;;;;;;;;;;21.60;46.10;;;;;;481991;246;2205;-52
2022/08/13 02:59:11;;;;;;;;;;;21.60;46.10;;;;;;482239;247;1722;-51
2022/08/13 03:01:12;;;;;;;;;;;21.60;46.10;;;;;;482370;246;1316;-51
2022/08/13 03:03:13;;;;;;;;;;;21.60;46.10;;;;;;482095;247;1490;-52
2022/08/13 03:05:15;;;;;;;;;;;21.60;46.10;;;;;;482246;247;1293;-52
2022/08/13 03:07:19;;;;;;;;;;;21.60;46.10;;;;;;482113;247;1204;-52
2022/08/13 03:09:20;;;;;;;;;;;21.60;46.10;;;;;;482081;247;2184;-52
2022/08/13 03:11:19;;;;;;;;;;;21.60;46.10;;;;;;482267;247;1551;-51
2022/08/13 03:13:20;;;;;;;;;;;21.60;46.10;;;;;;482464;246;1265;-51
2022/08/13 03:15:21;;;;;;;;;;;21.60;46.10;;;;;;482038;247;1313;-51
2022/08/13 03:17:22;;;;;;;;;;;21.60;46.10;;;;;;482026;247;2153;-51
2022/08/13 03:19:25;;;;;;;;;;;21.60;46.10;;;;;;482336;246;1203;-51
2022/08/13 03:21:26;;;;;;;;;;;21.60;46.20;;;;;;482350;246;1204;-51
2022/08/13 03:23:28;;;;;;;;;;;21.60;46.10;;;;;;482264;247;1187;-51
2022/08/13 03:25:29;;;;;;;;;;;21.60;46.10;;;;;;482068;246;2194;-52
2022/08/13 03:27:32;;;;;;;;;;;21.60;46.10;;;;;;482089;247;2540;-52
2022/08/13 03:29:31;;;;;;;;;;;21.60;46.10;;;;;;482114;246;2303;-51
2022/08/13 03:31:34;;;;;;;;;;;21.60;46.20;;;;;;482026;247;1236;-51
2022/08/13 03:33:35;;;;;;;;;;;21.60;46.10;;;;;;481974;247;2151;-51
2022/08/13 03:35:36;;;;;;;;;;;21.60;46.20;;;;;;482083;246;2499;-51
2022/08/13 03:37:37;;;;;;;;;;;21.60;46.20;;;;;;482497;247;2149;-51
2022/08/13 03:39:38;;;;;;;;;;;21.60;46.20;;;;;;482422;247;1274;-52
2022/08/13 03:41:40;;;;;;;;;;;21.60;46.20;;;;;;482220;247;1293;-51
2022/08/13 03:43:42;;;;;;;;;;;21.60;46.20;;;;;;482068;247;1150;-51
2022/08/13 03:45:44;;;;;;;;;;;21.60;46.10;;;;;;482150;246;2038;-51
2022/08/13 03:47:44;;;;;;;;;;;21.60;46.20;;;;;;482142;246;1851;-52
2022/08/13 03:49:46;;;;;;;;;;;21.60;46.20;;;;;;482078;247;1260;-52
2022/08/13 03:51:48;;;;;;;;;;;21.60;46.20;;;;;;482271;246;1203;-51
2022/08/13 03:53:49;;;;;;;;;;;21.60;46.20;;;;;;482086;247;1311;-52
2022/08/13 03:55:50;;;;;;;;;;;21.60;46.10;;;;;;482113;247;2238;-51
2022/08/13 03:57:51;;;;;;;;;;;21.60;46.20;;;;;;481992;247;2177;-52
2022/08/13 03:59:53;;;;;;;;;;;21.60;46.30;;;;;;482236;247;1224;-51
2022/08/13 04:01:54;;;;;;;;;;;21.60;46.30;;;;;;481832;247;1292;-51
2022/08/13 04:03:55;;;;;;;;;;;21.60;46.30;;;;;;482025;247;1302;-51
2022/08/13 04:05:57;;;;;;;;;;;21.60;46.20;;;;;;482566;246;1296;-51
2022/08/13 04:07:59;;;;;;;;;;;21.60;46.20;;;;;;482102;247;1331;-52
2022/08/13 04:09:59;;;;;;;;;;;21.60;46.30;;;;;;482237;247;2005;-51
2022/08/13 04:12:01;;;;;;;;;;;21.60;46.20;;;;;;482454;246;1269;-51
2022/08/13 04:14:03;;;;;;;;;;;21.60;46.30;;;;;;482332;247;1224;-51
2022/08/13 04:16:04;;;;;;;;;;;21.60;46.30;;;;;;482215;246;1478;-52
2022/08/13 04:18:05;;;;;;;;;;;21.60;46.30;;;;;;482079;246;2465;-52
2022/08/13 04:20:06;;;;;;;;;;;21.60;46.30;;;;;;482017;247;1443;-51
2022/08/13 04:22:07;;;;;;;;;;;21.60;46.30;;;;;;482089;247;1268;-51
2022/08/13 04:24:11;;;;;;;;;;;21.60;46.40;;;;;;482319;247;1287;-51
2022/08/13 04:26:11;;;;;;;;;;;21.60;46.30;;;;;;481490;246;2111;-52
2022/08/13 04:28:11;;;;;;;;;;;21.60;46.30;;;;;;482094;247;2281;-52
2022/08/13 04:30:16;;;;;;;;;;;21.60;46.30;;;;;;482507;247;1164;-51
2022/08/13 04:32:14;;;;;;;;;;;21.60;46.40;;;;;;481960;247;1368;-52
2022/08/13 04:34:15;;;;;;;;;;;21.60;46.40;;;;;;482007;247;1280;-52
2022/08/13 04:36:17;;;;;;;;;;;21.60;46.30;;;;;;482426;247;1586;-51
2022/08/13 04:38:18;;;;;;;;;;;21.60;46.40;;;;;;482164;247;2313;-51
2022/08/13 04:40:19;;;;;;;;;;;21.60;46.40;;;;;;482314;247;1710;-52
2022/08/13 04:42:21;;;;;;;;;;;21.60;46.40;;;;;;482314;247;1230;-52
2022/08/13 04:44:22;;;;;;;;;;;21.60;46.40;;;;;;481958;247;1227;-52
2022/08/13 04:46:25;;;;;;;;;;;21.60;46.40;;;;;;482074;247;1185;-52
2022/08/13 04:48:24;;;;;;;;;;;21.60;46.40;;;;;;482127;246;2680;-52
2022/08/13 04:50:26;;;;;;;;;;;21.60;46.40;;;;;;482434;247;1203;-51
2022/08/13 04:52:27;;;;;;;;;;;21.60;46.40;;;;;;482116;247;1382;-51
2022/08/13 04:54:29;;;;;;;;;;;21.60;46.40;;;;;;482198;246;1433;-51
2022/08/13 04:56:30;;;;;;;;;;;21.70;46.40;;;;;;482377;247;1179;-52
2022/08/13 04:58:35;;;;;;;;;;;21.60;46.40;;;;;;482219;247;2149;-51
2022/08/13 05:00:34;;;;;;;;;;;21.60;46.40;;;;;;482170;247;2110;-52
2022/08/13 05:02:36;;;;;;;;;;;21.60;46.40;;;;;;482011;247;1301;-51
2022/08/13 05:04:37;;;;;;;;;;;21.60;46.40;;;;;;482584;247;1214;-51
2022/08/13 05:06:38;;;;;;;;;;;21.60;46.40;;;;;;482506;247;1540;-52
2022/08/13 05:08:41;;;;;;;;;;;21.60;46.40;;;;;;482266;246;1396;-51
2022/08/13 05:10:41;;;;;;;;;;;21.60;46.40;;;;;;482111;246;1868;-52
2022/08/13 05:12:43;;;;;;;;;;;21.60;46.40;;;;;;482455;247;1270;-51
2022/08/13 05:14:44;;;;;;;;;;;21.60;46.40;;;;;;482087;247;1256;-52
2022/08/13 05:16:46;;;;;;;;;;;21.60;46.40;;;;;;482069;246;1252;-51
2022/08/13 05:18:52;;;;;;;;;;;21.60;46.40;;;;;;482128;247;2126;-52
2022/08/13 05:20:48;;;;;;;;;;;21.60;46.40;;;;;;482108;247;2222;-51
2022/08/13 05:22:50;;;;;;;;;;;21.60;46.40;;;;;;482400;247;1268;-51
2022/08/13 05:24:51;;;;;;;;;;;21.60;46.40;;;;;;482271;246;2503;-51
2022/08/13 05:26:52;;;;;;;;;;;21.60;46.40;;;;;;482218;247;1223;-51
2022/08/13 05:28:54;;;;;;;;;;;21.60;46.40;;;;;;482146;247;1196;-51
2022/08/13 05:30:55;;;;;;;;;;;21.60;46.40;;;;;;482433;247;1214;-51
2022/08/13 05:32:57;;;;;;;;;;;21.60;46.40;;;;;;482047;247;1230;-51
2022/08/13 05:34:59;;;;;;;;;;;21.60;46.40;;;;;;481898;247;2137;-51
2022/08/13 05:36:59;;;;;;;;;;;21.60;46.40;;;;;;482178;247;1873;-52
2022/08/13 05:39:01;;;;;;;;;;;21.60;46.30;;;;;;482205;247;2208;-52
2022/08/13 05:41:02;;;;;;;;;;;21.60;46.40;;;;;;482505;247;1336;-52
2022/08/13 05:43:03;;;;;;;;;;;21.60;46.40;;;;;;482575;247;1189;-51
2022/08/13 05:45:05;;;;;;;;;;;21.60;46.50;;;;;;481980;247;1315;-52
2022/08/13 05:47:06;;;;;;;;;;;21.60;46.40;;;;;;482204;247;1237;-51
2022/08/13 05:49:08;;;;;;;;;;;21.60;46.50;;;;;;482102;247;1226;-51
2022/08/13 05:51:10;;;;;;;;;;;21.60;46.50;;;;;;482421;247;1307;-51
2022/08/13 05:53:10;;;;;;;;;;;21.60;46.50;;;;;;482079;247;1620;-51
2022/08/13 05:55:11;;;;;;;;;;;21.60;46.50;;;;;;482590;246;1263;-51
2022/08/13 05:57:14;;;;;;;;;;;21.60;46.50;;;;;;482071;247;1228;-52
2022/08/13 06:04:00;;;;;;;;;;;21.60;46.50;;;;;;473880;246;1253;-51
2022/08/13 06:06:00;;;;;;;;;;;21.60;46.50;;;;;;481397;247;1857;-51
2022/08/13 06:08:01;;;;;;;;;;;21.60;46.50;;;;;;482129;247;1286;-52
2022/08/13 06:10:02;;;;;;;;;;;21.60;46.50;;;;;;482506;247;1355;-51
2022/08/13 06:12:04;;;;;;;;;;;21.60;46.50;;;;;;481906;247;1273;-52
2022/08/13 06:14:05;;;;;;;;;;;21.60;46.60;;;;;;482244;247;1317;-50
2022/08/13 06:16:06;;;;;;;;;;;21.60;46.60;;;;;;482063;247;1298;-51
2022/08/13 06:18:08;;;;;;;;;;;21.60;46.60;;;;;;482042;247;2199;-51
2022/08/13 06:20:09;;;;;;;;;;;21.60;46.60;;;;;;482018;247;1219;-52
2022/08/13 06:22:10;;;;;;;;;;;21.60;46.60;;;;;;482496;246;1275;-51
2022/08/13 06:24:12;;;;;;;;;;;21.60;46.60;;;;;;482210;247;1205;-51
2022/08/13 06:26:14;;;;;;;;;;;21.60;46.60;;;;;;482205;247;2181;-52
2022/08/13 06:28:16;;;;;;;;;;;21.60;46.60;;;;;;482071;247;2041;-51
2022/08/13 06:30:18;;;;;;;;;;;21.60;46.60;;;;;;482442;247;1665;-51
2022/08/13 06:32:18;;;;;;;;;;;21.60;46.50;;;;;;482099;247;1602;-52
2022/08/13 06:34:20;;;;;;;;;;;21.60;46.50;;;;;;482151;247;1211;-52
2022/08/13 06:36:21;;;;;;;;;;;21.60;46.60;;;;;;482220;247;1225;-51
2022/08/13 06:38:23;;;;;;;;;;;21.60;46.60;;;;;;482135;247;2308;-51
2022/08/13 06:40:24;;;;;;;;;;;21.60;46.60;;;;;;482149;246;1309;-52
2022/08/13 06:42:26;;;;;;;;;;;21.60;46.60;;;;;;482104;247;1148;-51
2022/08/13 06:44:27;;;;;;;;;;;21.60;46.60;;;;;;482111;247;1311;-51
2022/08/13 06:46:28;;;;;;;;;;;21.60;46.60;;;;;;482231;247;1381;-52
2022/08/13 06:48:29;;;;;;;;;;;21.60;46.60;;;;;;482113;247;1197;-51
2022/08/13 06:50:33;;;;;;;;;;;21.60;46.60;;;;;;482096;247;1249;-52
2022/08/13 06:52:33;;;;;;;;;;;21.60;46.60;;;;;;482081;247;1400;-51
2022/08/13 06:54:34;;;;;;;;;;;21.60;46.60;;;;;;482298;247;1273;-51
2022/08/13 06:56:35;;;;;;;;;;;21.60;46.60;;;;;;482091;246;1210;-51
2022/08/13 06:58:37;;;;;;;;;;;21.60;46.60;;;;;;482116;247;2265;-51
2022/08/13 07:00:38;;;;;;;;;;;21.60;46.60;;;;;;482557;246;1202;-51
2022/08/13 07:02:42;;;;;;;;;;;21.60;46.60;;;;;;482229;247;1264;-51
2022/08/13 07:04:42;;;;;;;;;;;21.60;46.60;;;;;;482193;246;1912;-51
2022/08/13 07:06:47;;;;;;;;;;;21.60;46.70;;;;;;482495;246;1184;-51
2022/08/13 07:08:45;;;;;;;;;;;21.60;46.60;;;;;;482189;246;2333;-51
2022/08/13 07:10:51;;;;;;;;;;;21.60;46.70;;;;;;482203;246;1235;-52
2022/08/13 07:12:48;;;;;;;;;;;21.60;46.70;;;;;;482136;246;2302;-51
2022/08/13 07:14:49;;;;;;;;;;;21.60;46.70;;;;;;482308;246;1289;-52
2022/08/13 07:16:53;;;;;;;;;;;21.60;46.70;;;;;;482147;247;1194;-52
2022/08/13 07:18:52;;;;;;;;;;;21.60;46.60;;;;;;482050;246;2344;-51
2022/08/13 07:20:53;;;;;;;;;;;21.60;46.70;;;;;;482050;246;1231;-51
2022/08/13 07:22:55;;;;;;;;;;;21.60;46.70;;;;;;481919;247;1252;-52
2022/08/13 07:24:56;;;;;;;;;;;21.60;46.70;;;;;;482093;246;1254;-51
2022/08/13 07:26:59;;;;;;;;;;;21.60;46.70;;;;;;482497;246;1218;-52
2022/08/13 07:28:59;;;;;;;;;;;21.60;46.70;;;;;;482083;247;2376;-51
2022/08/13 07:31:00;;;;;;;;;;;21.60;46.70;;;;;;482075;246;1202;-51
2022/08/13 07:33:02;;;;;;;;;;;21.60;46.80;;;;;;482060;247;1359;-52
2022/08/13 07:35:03;;;;;;;;;;;21.60;46.70;;;;;;482514;246;1230;-51
2022/08/13 07:37:04;;;;;;;;;;;21.60;46.70;;;;;;482087;247;1313;-52
2022/08/13 07:39:05;;;;;;;;;;;21.60;46.70;;;;;;482148;247;2193;-52
2022/08/13 07:41:07;;;;;;;;;;;21.60;46.80;;;;;;482563;247;1084;-52
2022/08/13 07:43:08;;;;;;;;;;;21.60;46.80;;;;;;482451;247;1344;-52
2022/08/13 07:45:09;;;;;;;;;;;21.60;46.70;;;;;;482226;247;1066;-51
2022/08/13 07:47:12;;;;;;;;;;;21.60;46.80;;;;;;482020;247;1180;-52
2022/08/13 07:49:13;;;;;;;;;;;21.60;46.70;;;;;;482480;246;1279;-52
2022/08/13 07:51:19;;;;;;;;;;;21.60;46.70;;;;;;482209;247;1358;-51
2022/08/13 07:53:17;;;;;;;;;;;21.60;46.80;;;;;;482075;247;2410;-52
2022/08/13 07:55:19;;;;;;;;;;;21.60;46.70;;;;;;482185;247;1191;-51
2022/08/13 07:57:20;;;;;;;;;;;21.60;46.70;;;;;;482076;247;1331;-52
2022/08/13 07:59:22;;;;;;;;;;;21.60;46.80;;;;;;482092;247;2168;-52
2022/08/13 08:01:23;;;;;;;;;;;21.60;46.70;;;;;;482505;247;2285;-51
2022/08/13 08:03:24;;;;;;;;;;;21.60;46.80;;;;;;482129;247;2393;-51
2022/08/13 08:05:26;;;;;;;;;;;21.60;46.80;;;;;;482207;247;1170;-52
2022/08/13 08:07:27;;;;;;;;;;;21.60;46.80;;;;;;482556;247;1189;-52
2022/08/13 08:09:29;;;;;;;;;;;21.60;46.80;;;;;;482539;247;1107;-52
2022/08/13 08:13:50;;;;;;;;;;;21.60;46.80;;;;;;482116;247;1116;-51
2022/08/13 08:15:50;;;;;;;;;;;21.60;46.80;;;;;;482283;247;1433;-52
2022/08/13 08:17:51;;;;;;;;;;;21.60;46.80;;;;;;482113;246;1231;-51
2022/08/13 08:19:53;;;;;;;;;;;21.60;46.80;;;;;;481265;247;2201;-51
2022/08/13 08:21:56;;;;;;;;;;;21.60;46.80;;;;;;482219;247;1193;-52
2022/08/13 08:23:57;;;;;;;;;;;21.60;46.80;;;;;;482086;247;2361;-51
2022/08/13 08:25:58;;;;;;;;;;;21.60;46.80;;;;;;482093;247;1686;-51
2022/08/13 08:27:59;;;;;;;;;;;21.60;46.80;;;;;;482372;246;1213;-51
2022/08/13 08:30:01;;;;;;;;;;;21.60;46.80;;;;;;482112;246;1161;-51
2022/08/13 08:32:04;;;;;;;;;;;21.60;46.80;;;;;;482053;247;1263;-51
2022/08/13 08:34:07;;;;;;;;;;;21.60;46.80;;;;;;482229;247;2389;-51
2022/08/13 08:36:05;;;;;;;;;;;21.60;46.80;;;;;;482465;247;1521;-52
2022/08/13 08:42:45;;;;;;;;;;;21.60;46.80;;;;;;480488;247;1549;-51
2022/08/13 08:44:46;;;;;;;;;;;21.60;46.80;;;;;;482125;247;1195;-51
2022/08/13 08:46:48;;;;;;;;;;;21.60;46.80;;;;;;482307;246;1543;-52
2022/08/13 08:48:49;;;;;;;;;;;21.60;46.80;;;;;;482079;246;1423;-51
2022/08/13 08:50:51;;;;;;;;;;;21.60;46.80;;;;;;482613;247;1301;-52
2022/08/13 08:55:11;;;;;;;;;;;21.60;46.80;;;;;;482278;247;1290;-52
2022/08/13 08:57:13;;;;;;;;;;;21.50;46.80;;;;;;482316;247;1145;-51
2022/08/13 08:59:15;;;;;;;;;;;21.60;46.80;;;;;;482392;247;2166;-52
2022/08/13 09:01:21;;;;;;;;;;;21.60;46.80;;;;;;482110;247;1897;-51
2022/08/13 09:03:19;;;;;;;;;;;21.60;46.90;;;;;;482167;247;1723;-51
2022/08/13 09:05:21;;;;;;;;;;;21.50;46.90;;;;;;482157;247;1870;-51
2022/08/13 09:07:22;;;;;;;;;;;21.60;46.90;;;;;;482089;247;1415;-51
2022/08/13 09:09:23;;;;;;;;;;;21.60;46.90;;;;;;482069;246;1223;-51
2022/08/13 09:11:24;;;;;;;;;;;21.60;46.90;;;;;;482574;247;1161;-51
2022/08/13 09:13:25;;;;;;;;;;;21.60;46.80;;;;;;482229;246;1420;-51
2022/08/13 09:15:27;;;;;;;;;;;21.60;46.90;;;;;;482436;246;1172;-51
2022/08/13 09:17:28;;;;;;;;;;;21.60;46.90;;;;;;482130;247;1315;-52
2022/08/13 09:19:29;;;;;;;;;;;21.60;46.90;;;;;;482182;246;2201;-51
2022/08/13 09:21:31;;;;;;;;;;;21.60;46.90;;;;;;481848;247;1275;-52
2022/08/13 09:23:33;;;;;;;;;;;21.60;46.90;;;;;;482122;247;1208;-52
2022/08/13 09:25:33;;;;;;;;;;;21.60;46.90;;;;;;481988;247;2305;-51
2022/08/13 09:27:35;;;;;;;;;;;21.60;46.90;;;;;;482135;246;1173;-52
2022/08/13 09:29:36;;;;;;;;;;;21.60;46.90;;;;;;481727;247;1502;-51
2022/08/13 09:31:38;;;;;;;;;;;21.50;46.90;;;;;;481725;247;1192;-51
2022/08/13 09:33:39;;;;;;;;;;;21.50;46.90;;;;;;482432;247;1289;-52
2022/08/13 09:35:40;;;;;;;;;;;21.50;46.90;;;;;;482230;247;1069;-51
2022/08/13 09:37:41;;;;;;;;;;;21.50;47.00;;;;;;482186;247;1197;-52
2022/08/13 09:39:43;;;;;;;;;;;21.50;47.00;;;;;;482431;247;2201;-51
2022/08/13 09:41:51;;;;;;;;;;;21.50;47.00;;;;;;482004;247;1045;-51
2022/08/13 09:43:45;;;;;;;;;;;21.60;47.00;;;;;;482125;247;2311;-51
2022/08/13 09:45:47;;;;;;;;;;;21.60;46.90;;;;;;482116;247;1124;-51
2022/08/13 09:47:48;;;;;;;;;;;21.60;46.90;;;;;;482454;247;1235;-51
2022/08/13 09:49:50;;;;;;;;;;;21.60;46.90;;;;;;482016;246;1255;-51
2022/08/13 09:51:51;;;;;;;;;;;21.50;46.90;;;;;;482109;247;1158;-51
2022/08/13 09:53:52;;;;;;;;;;;21.60;47.00;;;;;;482464;247;1152;-52
2022/08/13 09:55:53;;;;;;;;;;;21.50;46.90;;;;;;482232;247;1272;-51
2022/08/13 09:57:55;;;;;;;;;;;21.50;46.90;;;;;;482108;247;1231;-52
2022/08/13 09:59:56;;;;;;;;;;;21.50;46.90;;;;;;482275;247;2161;-51
2022/08/13 10:01:57;;;;;;;;;;;21.60;46.90;;;;;;482188;247;1218;-51
2022/08/13 10:03:59;;;;;;;;;;;21.60;46.90;;;;;;482119;247;1218;-51
2022/08/13 10:06:00;;;;;;;;;;;21.60;46.90;;;;;;482131;247;1254;-52
2022/08/13 10:08:01;;;;;;;;;;;21.50;46.90;;;;;;482112;247;1253;-51
2022/08/13 10:10:03;;;;;;;;;;;21.60;47.00;;;;;;482277;247;1399;-51
2022/08/13 10:12:04;;;;;;;;;;;21.50;46.90;;;;;;482148;247;1147;-51
2022/08/13 10:14:06;;;;;;;;;;;21.50;47.00;;;;;;482317;246;1720;-51
2022/08/13 10:16:07;;;;;;;;;;;21.50;47.00;;;;;;482264;247;1206;-52
2022/08/13 10:18:08;;;;;;;;;;;21.50;47.00;;;;;;482253;247;1464;-52
2022/08/13 10:20:09;;;;;;;;;;;21.50;46.90;;;;;;482078;247;2172;-52
2022/08/13 10:22:11;;;;;;;;;;;21.60;47.00;;;;;;482233;246;1149;-52
2022/08/13 10:24:12;;;;;;;;;;;21.50;47.00;;;;;;482129;247;1110;-51
2022/08/13 10:26:13;;;;;;;;;;;21.60;47.00;;;;;;482234;247;1223;-52
2022/08/13 10:28:15;;;;;;;;;;;21.60;47.00;;;;;;482215;247;1076;-51
2022/08/13 10:30:17;;;;;;;;;;;21.50;47.00;;;;;;482424;247;1120;-51
2022/08/13 10:32:17;;;;;;;;;;;21.50;47.00;;;;;;482088;247;1656;-52
2022/08/13 10:34:22;;;;;;;;;;;21.50;47.00;;;;;;482286;247;1188;-52
2022/08/13 10:36:21;;;;;;;;;;;21.50;47.00;;;;;;482139;247;2186;-52
2022/08/13 10:38:26;;;;;;;;;;;21.50;47.00;;;;;;481913;247;2253;-52
2022/08/13 10:40:23;;;;;;;;;;;21.60;47.00;;;;;;482109;247;2204;-51
2022/08/13 10:42:24;;;;;;;;;;;21.50;47.00;;;;;;482287;246;1193;-51
2022/08/13 10:44:25;;;;;;;;;;;21.50;47.00;;;;;;481960;246;1317;-51
2022/08/13 10:46:29;;;;;;;;;;;21.50;47.00;;;;;;482441;246;1217;-52
2022/08/13 10:48:28;;;;;;;;;;;21.60;47.10;;;;;;482078;247;1528;-51
2022/08/13 10:50:30;;;;;;;;;;;21.60;47.10;;;;;;482205;246;1367;-53
2022/08/13 10:52:31;;;;;;;;;;;21.60;47.00;;;;;;482073;247;1981;-52
2022/08/13 10:54:33;;;;;;;;;;;21.60;47.00;;;;;;482223;247;1530;-52
2022/08/13 10:56:34;;;;;;;;;;;21.60;47.00;;;;;;482360;247;1207;-51
2022/08/13 10:58:35;;;;;;;;;;;21.50;47.00;;;;;;482196;247;1180;-51
2022/08/13 11:00:36;;;;;;;;;;;21.50;47.00;;;;;;482316;246;2208;-51
2022/08/13 11:02:38;;;;;;;;;;;21.60;47.00;;;;;;482562;246;1231;-51
2022/08/13 11:04:39;;;;;;;;;;;21.50;47.00;;;;;;482179;247;1250;-52
2022/08/13 11:06:41;;;;;;;;;;;21.50;47.10;;;;;;482178;247;1252;-51
2022/08/13 11:08:42;;;;;;;;;;;21.50;47.10;;;;;;482198;246;1080;-52
2022/08/13 11:10:45;;;;;;;;;;;21.50;47.10;;;;;;482343;246;1285;-52
2022/08/13 11:12:50;;;;;;;;;;;21.50;47.10;;;;;;482391;247;2030;-52
2022/08/13 11:14:46;;;;;;;;;;;21.60;47.00;;;;;;482595;247;1763;-52
2022/08/13 11:16:57;;;;;;;;;;;21.50;47.00;;;;;;482135;246;1156;-51
2022/08/13 11:18:58;;;;;;;;;;;21.60;47.10;;;;;;482142;247;1104;-52
2022/08/13 11:21:02;;;;;;;;;;;21.60;47.10;;;;;;482080;246;2134;-52
2022/08/13 11:23:04;;;;;;;;;;;21.50;47.00;;;;;;482090;246;1299;-51
2022/08/13 11:25:07;;;;;;;;;;;21.60;47.00;;;;;;482483;246;1151;-51
2022/08/13 11:27:07;;;;;;;;;;;21.60;47.00;;;;;;482169;247;1878;-52
2022/08/13 11:29:08;;;;;;;;;;;21.60;47.10;;;;;;482178;247;1257;-51
2022/08/13 11:31:09;;;;;;;;;;;21.50;47.10;;;;;;482377;247;1314;-51
2022/08/13 11:33:11;;;;;;;;;;;21.50;47.00;;;;;;482148;247;1294;-51
2022/08/13 11:35:12;;;;;;;;;;;21.60;47.10;;;;;;482364;246;1231;-52
2022/08/13 11:37:13;;;;;;;;;;;21.50;47.00;;;;;;482345;247;1222;-52
2022/08/13 11:39:15;;;;;;;;;;;21.50;47.00;;;;;;482442;246;1450;-52
2022/08/13 11:41:16;;;;;;;;;;;21.50;47.10;;;;;;482335;247;2185;-52
2022/08/13 11:43:17;;;;;;;;;;;21.50;47.00;;;;;;482502;246;1222;-51
2022/08/13 11:45:19;;;;;;;;;;;21.50;47.10;;;;;;482088;247;1484;-52
2022/08/13 11:47:20;;;;;;;;;;;21.50;47.00;;;;;;482078;247;1253;-51
2022/08/13 11:49:21;;;;;;;;;;;21.50;47.10;;;;;;482122;246;1278;-51
2022/08/13 11:51:23;;;;;;;;;;;21.50;47.10;;;;;;482081;247;1214;-51
2022/08/13 11:53:24;;;;;;;;;;;21.50;47.10;;;;;;482128;247;1321;-51
2022/08/13 11:55:25;;;;;;;;;;;21.50;47.10;;;;;;482057;247;1260;-51
2022/08/13 11:57:27;;;;;;;;;;;21.50;47.10;;;;;;482382;247;1325;-51
2022/08/13 11:59:28;;;;;;;;;;;21.50;47.10;;;;;;482131;247;2192;-51
2022/08/13 12:01:30;;;;;;;;;;;21.50;47.10;;;;;;481364;247;1185;-51
2022/08/13 12:03:31;;;;;;;;;;;21.50;47.00;;;;;;482066;247;1850;-51
2022/08/13 12:05:32;;;;;;;;;;;21.50;47.00;;;;;;482400;246;1198;-51
2022/08/13 12:07:33;;;;;;;;;;;21.50;47.10;;;;;;482417;246;1259;-51
2022/08/13 12:09:35;;;;;;;;;;;21.50;47.10;;;;;;482155;247;1282;-52
2022/08/13 12:11:36;;;;;;;;;;;21.50;47.10;;;;;;482120;246;1337;-52
2022/08/13 12:13:37;;;;;;;;;;;21.50;47.00;;;;;;482249;247;1202;-52
2022/08/13 12:15:39;;;;;;;;;;;21.50;47.10;;;;;;482184;247;1585;-51
2022/08/13 12:17:42;;;;;;;;;;;21.60;47.10;;;;;;482180;247;1171;-51
2022/08/13 12:19:41;;;;;;;;;;;21.50;47.10;;;;;;482151;247;2164;-52
2022/08/13 12:21:43;;;;;;;;;;;21.50;47.10;;;;;;482150;247;1529;-52